createdAt,value
2018-07-14T11:42:08.015Z,36.90
2018-07-14T11:44:37.579Z,36.80
2018-07-14T11:47:07.208Z,36.90
2018-07-14T11:49:36.827Z,37.10
2018-07-14T11:52:06.424Z,37.40
2018-07-14T11:54:36.060Z,37.60
2018-07-14T11:57:11.835Z,37.80
2018-07-14T11:59:41.385Z,37.90
2018-07-14T12:02:10.949Z,38.10
2018-07-14T12:04:40.608Z,38.10
2018-07-14T12:07:10.275Z,38.30
2018-07-14T12:09:39.787Z,38.40
2018-07-14T12:12:09.970Z,38.60
2018-07-14T12:14:39.630Z,38.70
2018-07-14T12:17:09.215Z,38.80
2018-07-14T12:19:38.730Z,38.90
2018-07-14T12:22:08.397Z,38.90
2018-07-14T12:24:37.973Z,38.80
2018-07-14T12:27:07.544Z,38.80
2018-07-14T12:29:37.144Z,38.90
2018-07-14T12:32:06.881Z,38.90
2018-07-14T12:34:36.481Z,39.00
2018-07-14T12:37:06.221Z,39.10
2018-07-14T12:39:35.769Z,39.00
2018-07-14T12:42:05.457Z,39.00
2018-07-14T12:44:35.704Z,39.00
2018-07-14T12:47:05.443Z,39.00
2018-07-14T12:49:35.021Z,38.90
2018-07-14T12:52:04.592Z,38.80
2018-07-14T12:54:34.271Z,38.70
2018-07-14T12:57:03.841Z,38.60
2018-07-14T12:59:33.410Z,38.50
2018-07-14T13:02:03.059Z,38.30
2018-07-14T13:04:32.581Z,38.10
2018-07-14T13:07:02.109Z,37.90
2018-07-14T13:09:31.711Z,37.70
2018-07-14T13:12:01.263Z,37.50
2018-07-14T13:14:30.818Z,37.30
2018-07-14T13:17:00.388Z,37.00
2018-07-14T13:19:29.926Z,36.80
2018-07-14T13:21:59.463Z,36.60
2018-07-14T13:24:29.064Z,36.40
2018-07-14T13:26:58.671Z,36.20
2018-07-14T13:29:28.264Z,36.00
2018-07-14T13:31:57.852Z,35.90
2018-07-14T13:34:27.381Z,35.70
2018-07-14T13:36:56.940Z,35.50
2018-07-14T13:39:26.544Z,35.40
2018-07-14T13:41:56.062Z,35.30
2018-07-14T13:44:25.632Z,35.20
2018-07-14T13:46:55.204Z,35.20
2018-07-14T13:49:24.797Z,35.10
2018-07-14T13:51:54.390Z,35.00
2018-07-14T13:54:24.013Z,34.90
2018-07-14T13:56:53.566Z,34.90
2018-07-14T13:59:23.090Z,34.80
2018-07-14T14:01:52.716Z,34.80
2018-07-14T14:04:22.310Z,34.70
2018-07-14T14:06:51.905Z,34.60
2018-07-14T14:11:50.466Z,34.50
2018-07-14T14:14:20.118Z,34.40
2018-07-14T14:19:18.672Z,34.30
2018-07-14T14:21:48.260Z,34.20
2018-07-14T14:24:17.831Z,34.10
2018-07-14T14:26:47.416Z,34.20
2018-07-14T14:29:17.097Z,34.10
2018-07-14T14:31:46.685Z,34.10
2018-07-14T14:34:16.239Z,34.10
2018-07-14T14:36:45.783Z,34.00
2018-07-14T14:39:15.374Z,34.00
2018-07-14T14:41:44.954Z,33.90
2018-07-14T14:44:14.532Z,33.90
2018-07-14T14:46:44.132Z,33.80
2018-07-14T14:49:13.707Z,33.80
2018-07-14T14:54:12.198Z,33.80
2018-07-14T14:59:10.806Z,33.70
2018-07-14T15:01:40.515Z,33.70
2018-07-14T15:04:10.094Z,33.70
2018-07-14T15:06:39.614Z,33.60
2018-07-14T15:09:09.175Z,33.60
2018-07-14T15:11:38.791Z,33.50
2018-07-14T15:14:08.336Z,33.50
2018-07-14T15:19:07.030Z,33.40
2018-07-14T15:24:05.624Z,33.30
2018-07-14T15:26:35.212Z,33.30
2018-07-14T15:29:04.853Z,33.30
2018-07-14T15:31:34.510Z,33.20
2018-07-14T15:34:04.094Z,33.20
2018-07-14T15:36:33.706Z,33.20
2018-07-14T15:39:03.443Z,33.20
2018-07-14T15:41:33.112Z,33.10
2018-07-14T15:44:02.768Z,33.10
2018-07-14T15:46:32.338Z,33.00
2018-07-14T15:49:01.943Z,33.00
2018-07-14T15:51:31.534Z,33.00
2018-07-14T15:56:30.111Z,32.80
2018-07-14T15:58:59.695Z,32.80
2018-07-14T16:01:29.222Z,32.80
2018-07-14T16:03:58.776Z,32.70
2018-07-14T16:06:28.365Z,32.60
2018-07-14T16:08:57.989Z,32.60
2018-07-14T16:11:27.566Z,32.50
2018-07-14T16:13:57.156Z,32.50
2018-07-14T16:16:26.702Z,32.40
2018-07-14T16:18:56.353Z,32.40
2018-07-14T16:21:25.921Z,32.40
2018-07-14T16:23:55.502Z,32.30
2018-07-14T16:26:25.125Z,32.20
2018-07-14T16:28:54.798Z,32.30
2018-07-14T16:31:24.703Z,32.20
2018-07-14T16:33:54.600Z,32.20
2018-07-14T16:36:24.532Z,32.20
2018-07-14T16:38:54.463Z,32.10
2018-07-14T16:43:53.307Z,32.00
2018-07-14T16:46:22.912Z,32.00
2018-07-14T16:48:52.516Z,32.00
2018-07-14T16:51:22.136Z,32.00
2018-07-14T16:53:51.800Z,31.80
2018-07-14T16:56:21.408Z,31.80
2018-07-14T16:58:51.349Z,31.70
2018-07-14T17:01:20.991Z,31.70
2018-07-14T17:03:50.601Z,31.60
2018-07-14T17:06:20.181Z,31.50
2018-07-14T17:08:49.751Z,31.40
2018-07-14T17:11:19.340Z,31.30
2018-07-14T17:13:48.914Z,31.20
2018-07-14T17:16:18.500Z,31.10
2018-07-14T17:18:48.052Z,31.10
2018-07-14T17:21:18.110Z,31.00
2018-07-14T17:23:47.770Z,31.00
2018-07-14T17:26:17.371Z,30.90
2018-07-14T17:28:46.962Z,30.90
2018-07-14T17:31:16.713Z,30.80
2018-07-14T17:33:46.310Z,30.80
2018-07-14T17:36:15.880Z,30.70
2018-07-14T17:38:45.559Z,30.70
2018-07-14T17:41:15.167Z,30.60
2018-07-14T17:43:44.813Z,30.60
2018-07-14T17:46:14.421Z,30.60
2018-07-14T17:48:43.986Z,30.50
2018-07-14T17:51:13.560Z,30.50
2018-07-14T17:53:43.154Z,30.40
2018-07-14T17:56:12.757Z,30.30
2018-07-14T17:58:42.395Z,30.30
2018-07-14T18:01:11.984Z,30.20
2018-07-14T18:03:41.563Z,30.20
2018-07-14T18:06:11.167Z,30.20
2018-07-14T18:08:40.781Z,30.20
2018-07-14T18:11:10.399Z,30.10
2018-07-14T18:13:39.946Z,30.10
2018-07-14T18:16:09.529Z,30.00
2018-07-14T18:18:39.295Z,30.00
2018-07-14T18:21:09.123Z,29.90
2018-07-14T18:23:38.732Z,29.90
2018-07-14T18:26:08.360Z,29.90
2018-07-14T18:28:37.908Z,29.80
2018-07-14T18:31:07.801Z,29.80
2018-07-14T18:33:37.811Z,29.80
2018-07-14T18:36:07.438Z,29.70
2018-07-14T18:38:37.010Z,29.70
2018-07-14T18:41:06.742Z,29.60
2018-07-14T18:43:36.274Z,29.60
2018-07-14T18:46:05.887Z,29.60
2018-07-14T18:48:35.444Z,29.50
2018-07-14T18:51:05.023Z,29.40
2018-07-14T18:53:34.607Z,29.40
2018-07-14T18:56:04.261Z,29.30
2018-07-14T18:58:33.817Z,29.30
2018-07-14T19:01:03.433Z,29.20
2018-07-14T19:03:33.012Z,29.10
2018-07-14T19:06:02.606Z,29.10
2018-07-14T19:08:32.201Z,29.00
2018-07-14T19:11:01.835Z,29.00
2018-07-14T19:13:31.635Z,28.90
2018-07-14T19:16:01.253Z,28.90
2018-07-14T19:18:30.882Z,28.80
2018-07-14T19:21:00.549Z,28.80
2018-07-14T19:23:30.255Z,28.80
2018-07-14T19:26:00.090Z,28.70
2018-07-14T19:28:29.613Z,28.60
2018-07-14T19:30:59.246Z,28.50
2018-07-14T19:33:29.017Z,28.40
2018-07-14T19:35:58.693Z,28.30
2018-07-14T19:38:28.334Z,28.20
2018-07-14T19:40:57.918Z,28.00
2018-07-14T19:43:27.597Z,27.80
2018-07-14T19:45:57.245Z,27.70
2018-07-14T19:48:26.880Z,27.50
2018-07-14T19:51:00.533Z,27.30
2018-07-14T19:53:30.306Z,27.20
2018-07-14T19:56:00.056Z,27.10
2018-07-14T19:58:29.548Z,26.90
2018-07-14T20:00:59.193Z,26.80
2018-07-14T20:03:28.882Z,26.70
2018-07-14T20:05:58.575Z,26.60
2018-07-14T20:08:28.232Z,26.60
2018-07-14T20:10:58.138Z,26.50
2018-07-14T20:13:28.173Z,26.50
2018-07-14T20:15:58.011Z,26.40
2018-07-14T20:18:27.612Z,26.30
2018-07-14T20:20:57.414Z,26.20
2018-07-14T20:23:27.411Z,26.20
2018-07-14T20:25:57.190Z,26.10
2018-07-14T20:28:27.152Z,26.00
2018-07-14T20:30:56.967Z,25.90
2018-07-14T20:33:26.838Z,25.90
2018-07-14T20:35:56.424Z,25.80
2018-07-14T20:38:26.094Z,25.70
2018-07-14T20:40:55.741Z,25.70
2018-07-14T20:43:25.368Z,25.60
2018-07-14T20:45:54.959Z,25.60
2018-07-14T20:48:24.507Z,25.60
2018-07-14T20:50:54.068Z,25.50
2018-07-14T20:53:23.628Z,25.50
2018-07-14T20:55:53.261Z,25.40
2018-07-14T20:58:22.804Z,25.30
2018-07-14T21:00:52.454Z,25.30
2018-07-14T21:03:22.058Z,25.20
2018-07-14T21:05:51.604Z,25.10
2018-07-14T21:08:21.210Z,25.10
2018-07-14T21:10:50.829Z,25.10
2018-07-14T21:13:20.399Z,25.00
2018-07-14T21:15:49.975Z,24.90
2018-07-14T21:18:19.598Z,24.80
2018-07-14T21:20:49.252Z,24.80
2018-07-14T21:23:18.771Z,24.80
2018-07-14T21:25:48.408Z,24.70
2018-07-14T21:28:18.023Z,24.70
2018-07-14T21:30:47.590Z,24.70
2018-07-14T21:33:17.156Z,24.70
2018-07-14T21:35:46.702Z,24.60
2018-07-14T21:38:16.287Z,24.60
2018-07-14T21:40:45.897Z,24.60
2018-07-14T21:43:15.529Z,24.50
2018-07-14T21:45:45.116Z,24.50
2018-07-14T21:48:14.711Z,24.50
2018-07-14T21:50:44.321Z,24.50
2018-07-14T21:53:13.839Z,24.40
2018-07-14T21:55:43.388Z,24.40
2018-07-14T21:58:12.922Z,24.30
2018-07-14T22:00:47.707Z,24.30
2018-07-14T22:03:17.253Z,24.30
2018-07-14T22:05:46.891Z,24.20
2018-07-14T22:08:16.464Z,24.20
2018-07-14T22:13:15.062Z,24.20
2018-07-14T22:15:44.639Z,24.10
2018-07-14T22:18:14.174Z,24.10
2018-07-14T22:20:43.724Z,24.10
2018-07-14T22:23:13.387Z,24.00
2018-07-14T22:25:43.102Z,24.00
2018-07-14T22:28:12.896Z,24.00
2018-07-14T22:30:42.680Z,24.00
2018-07-14T22:33:12.282Z,24.00
2018-07-14T22:35:41.839Z,24.00
2018-07-14T22:38:11.392Z,24.00
2018-07-14T22:40:40.939Z,24.00
2018-07-14T22:43:10.527Z,24.00
2018-07-14T22:45:40.165Z,23.90
2018-07-14T22:48:09.779Z,23.90
2018-07-14T22:50:39.389Z,23.90
2018-07-14T22:53:09.007Z,23.90
2018-07-14T22:55:38.566Z,23.90
2018-07-14T22:58:08.116Z,23.80
2018-07-14T23:00:37.688Z,23.90
2018-07-14T23:03:07.773Z,23.80
2018-07-14T23:05:37.352Z,23.80
2018-07-14T23:08:06.919Z,23.80
2018-07-14T23:10:36.547Z,23.80
2018-07-14T23:13:06.285Z,23.80
2018-07-14T23:15:35.930Z,23.80
2018-07-14T23:18:05.571Z,23.80
2018-07-14T23:20:35.127Z,23.80
2018-07-14T23:23:04.729Z,23.80
2018-07-14T23:25:40.578Z,23.80
2018-07-14T23:28:13.045Z,23.80
2018-07-14T23:30:42.673Z,23.80
2018-07-14T23:33:12.253Z,23.70
2018-07-14T23:35:41.841Z,23.70
2018-07-14T23:38:11.380Z,23.70
2018-07-14T23:40:41.048Z,23.70
2018-07-14T23:43:10.605Z,23.60
2018-07-14T23:45:40.208Z,23.60
2018-07-14T23:48:09.819Z,23.60
2018-07-14T23:50:39.373Z,23.60
2018-07-14T23:53:08.950Z,23.50
2018-07-14T23:55:38.560Z,23.50
2018-07-14T23:58:08.130Z,23.50
